createdAt,value
2023-05-09T00:01:14.577Z,4.07
2023-05-09T00:03:36.173Z,4.60
2023-05-09T00:05:57.603Z,4.40
2023-05-09T00:08:19.077Z,3.77
2023-05-09T00:10:40.666Z,4.20
2023-05-09T00:13:02.160Z,3.47
2023-05-09T00:15:24.002Z,4.00
2023-05-09T00:17:45.874Z,3.57
2023-05-09T00:20:11.703Z,3.77
2023-05-09T00:22:33.182Z,3.90
2023-05-09T00:24:54.611Z,3.97
2023-05-09T00:27:16.569Z,3.83
2023-05-09T00:29:38.057Z,4.43
2023-05-09T00:31:59.595Z,3.93
2023-05-09T00:34:21.083Z,3.80
2023-05-09T00:36:42.538Z,4.87
2023-05-09T00:39:03.976Z,4.37
2023-05-09T00:41:25.979Z,4.63
2023-05-09T00:43:47.414Z,4.77
2023-05-09T00:46:09.013Z,5.00
2023-05-09T00:48:30.526Z,4.80
2023-05-09T00:50:53.212Z,4.53
2023-05-09T00:53:14.960Z,5.00
2023-05-09T00:55:36.618Z,4.73
2023-05-09T00:57:58.220Z,4.50
2023-05-09T01:00:19.674Z,4.20
2023-05-09T01:02:42.918Z,4.70
2023-05-09T01:05:04.894Z,4.30
2023-05-09T01:07:52.557Z,4.40
2023-05-09T01:10:54.336Z,4.67
2023-05-09T01:13:27.298Z,4.13
2023-05-09T01:15:59.815Z,4.10
2023-05-09T01:18:40.033Z,4.17
2023-05-09T01:21:08.884Z,4.80
2023-05-09T01:23:59.411Z,4.40
2023-05-09T01:26:57.907Z,4.50
2023-05-09T01:29:44.109Z,4.60
2023-05-09T01:32:11.894Z,4.40
2023-05-09T01:34:35.247Z,4.33
2023-05-09T01:37:00.737Z,4.37
2023-05-09T01:39:25.332Z,4.27
2023-05-09T01:41:46.878Z,4.07
2023-05-09T01:44:11.788Z,4.30
2023-05-09T01:46:35.387Z,4.40
2023-05-09T01:48:57.746Z,4.63
2023-05-09T01:51:21.358Z,4.67
2023-05-09T01:53:45.089Z,4.73
2023-05-09T01:56:09.364Z,4.50
2023-05-09T01:58:33.687Z,4.37
2023-05-09T02:00:55.464Z,4.40
2023-05-09T02:03:17.079Z,4.67
2023-05-09T02:05:39.388Z,4.30
2023-05-09T02:08:01.078Z,4.03
2023-05-09T02:10:22.691Z,4.20
2023-05-09T02:12:44.196Z,3.90
2023-05-09T02:15:06.805Z,4.43
2023-05-09T02:17:30.826Z,4.43
2023-05-09T02:19:52.349Z,4.43
2023-05-09T02:22:14.811Z,4.47
2023-05-09T02:24:36.860Z,4.70
2023-05-09T02:26:58.437Z,4.63
2023-05-09T02:29:23.183Z,4.57
2023-05-09T02:31:47.008Z,4.70
2023-05-09T02:34:09.739Z,4.87
2023-05-09T02:36:32.665Z,4.70
2023-05-09T02:38:54.644Z,4.30
2023-05-09T02:41:17.201Z,4.40
2023-05-09T02:43:38.667Z,4.07
2023-05-09T02:46:00.663Z,4.73
2023-05-09T02:48:22.227Z,4.70
2023-05-09T02:50:44.322Z,4.67
2023-05-09T02:53:06.216Z,4.90
2023-05-09T02:55:28.469Z,5.47
2023-05-09T02:57:56.182Z,5.00
2023-05-09T03:00:25.717Z,5.27
2023-05-09T03:02:47.301Z,5.20
2023-05-09T03:05:09.358Z,4.97
2023-05-09T03:07:31.197Z,5.20
2023-05-09T03:09:52.660Z,5.60
2023-05-09T03:12:14.156Z,4.97
2023-05-09T03:14:35.636Z,4.93
2023-05-09T03:16:57.127Z,5.27
2023-05-09T03:19:18.617Z,5.07
2023-05-09T03:21:40.103Z,4.87
2023-05-09T03:24:01.941Z,5.10
2023-05-09T03:26:23.438Z,5.17
2023-05-09T03:28:46.850Z,5.50
2023-05-09T03:31:08.371Z,5.37
2023-05-09T03:33:30.025Z,5.30
2023-05-09T03:35:51.739Z,5.83
2023-05-09T03:38:13.243Z,6.77
2023-05-09T03:40:34.695Z,5.60
2023-05-09T03:42:56.134Z,5.73
2023-05-09T03:45:17.584Z,5.67
2023-05-09T03:47:39.153Z,4.77
2023-05-09T03:50:00.681Z,5.33
2023-05-09T03:52:22.133Z,4.90
2023-05-09T03:54:43.584Z,5.97
2023-05-09T03:57:05.437Z,5.27
2023-05-09T03:59:26.904Z,5.50
2023-05-09T04:01:48.403Z,4.90
2023-05-09T04:04:10.007Z,5.30
2023-05-09T04:06:31.520Z,5.30
2023-05-09T04:08:53.013Z,5.23
2023-05-09T04:11:14.504Z,5.23
2023-05-09T04:13:36.057Z,5.70
2023-05-09T04:15:57.531Z,5.70
2023-05-09T04:18:19.074Z,5.67
2023-05-09T04:20:40.809Z,5.43
2023-05-09T04:23:02.297Z,5.20
2023-05-09T04:25:23.733Z,6.93
2023-05-09T04:27:45.525Z,5.27
2023-05-09T04:30:07.586Z,5.53
2023-05-09T04:32:29.053Z,5.70
2023-05-09T04:34:50.666Z,5.63
2023-05-09T04:37:13.322Z,5.70
2023-05-09T04:39:34.788Z,6.13
2023-05-09T04:41:56.292Z,5.30
2023-05-09T04:44:18.542Z,5.50
2023-05-09T04:46:40.522Z,6.13
2023-05-09T04:49:02.016Z,5.40
2023-05-09T04:51:23.576Z,5.77
2023-05-09T04:53:45.311Z,5.60
2023-05-09T04:56:07.062Z,5.27
2023-05-09T04:58:28.508Z,4.73
2023-05-09T05:00:50.121Z,5.07
2023-05-09T05:03:11.650Z,4.90
2023-05-09T05:05:35.996Z,4.67
2023-05-09T05:07:58.558Z,4.33
2023-05-09T05:10:20.045Z,4.17
2023-05-09T05:12:41.528Z,4.60
2023-05-09T05:15:03.028Z,4.07
2023-05-09T05:17:24.885Z,4.80
2023-05-09T05:19:46.354Z,4.70
2023-05-09T05:22:07.799Z,4.60
2023-05-09T05:24:29.295Z,4.17
2023-05-09T05:26:50.753Z,4.40
2023-05-09T05:29:12.199Z,4.27
2023-05-09T05:31:33.672Z,3.80
2023-05-09T05:33:55.134Z,4.10
2023-05-09T05:36:16.620Z,4.23
2023-05-09T05:38:38.070Z,4.57
2023-05-09T05:40:59.530Z,4.37
2023-05-09T05:43:21.009Z,4.27
2023-05-09T05:45:42.496Z,4.57
2023-05-09T05:48:04.260Z,4.40
2023-05-09T05:50:25.761Z,4.37
2023-05-09T05:52:47.370Z,3.97
2023-05-09T05:55:09.313Z,4.07
2023-05-09T05:57:31.097Z,4.13
2023-05-09T05:59:52.522Z,4.43
2023-05-09T06:02:14.678Z,4.00
2023-05-09T06:04:36.174Z,4.43
2023-05-09T06:06:58.045Z,4.10
2023-05-09T06:09:19.495Z,4.17
2023-05-09T06:11:40.974Z,4.07
2023-05-09T06:14:02.429Z,3.93
2023-05-09T06:16:23.978Z,4.53
2023-05-09T06:18:45.538Z,4.00
2023-05-09T06:21:07.544Z,4.03
2023-05-09T06:23:29.022Z,4.00
2023-05-09T06:25:50.526Z,4.60
2023-05-09T06:28:11.978Z,4.00
2023-05-09T06:30:33.443Z,4.63
2023-05-09T06:32:55.604Z,4.33
2023-05-09T06:35:17.308Z,4.50
2023-05-09T06:37:38.769Z,4.43
2023-05-09T06:40:00.288Z,4.50
2023-05-09T06:42:21.751Z,4.83
2023-05-09T06:44:43.878Z,4.60
2023-05-09T06:47:05.473Z,4.57
2023-05-09T06:49:26.939Z,4.90
2023-05-09T06:51:48.388Z,4.77
2023-05-09T06:54:10.071Z,4.70
2023-05-09T06:56:31.706Z,4.40
2023-05-09T06:58:53.496Z,5.10
2023-05-09T07:01:15.101Z,4.63
2023-05-09T07:03:36.550Z,4.47
2023-05-09T07:05:59.029Z,4.72
2023-05-09T07:08:20.459Z,4.40
2023-05-09T07:10:41.916Z,4.80
2023-05-09T07:13:03.395Z,5.27
2023-05-09T07:15:37.183Z,5.55
2023-05-09T07:18:02.530Z,5.13
2023-05-09T07:20:23.996Z,5.28
2023-05-09T07:22:45.498Z,4.82
2023-05-09T07:25:08.744Z,4.88
2023-05-09T07:27:30.175Z,5.35
2023-05-09T07:29:52.572Z,5.47
2023-05-09T07:32:14.090Z,5.43
2023-05-09T07:34:36.024Z,5.68
2023-05-09T07:36:58.749Z,5.57
2023-05-09T07:39:20.342Z,5.70
2023-05-09T07:41:42.289Z,6.18
2023-05-09T07:44:03.835Z,6.25
2023-05-09T07:46:25.407Z,6.07
2023-05-09T07:48:47.013Z,6.25
2023-05-09T07:51:08.690Z,5.80
2023-05-09T07:53:30.157Z,5.95
2023-05-09T07:55:52.312Z,7.32
2023-05-09T07:58:14.093Z,7.05
2023-05-09T08:00:36.094Z,6.97
2023-05-09T08:02:57.652Z,6.88
2023-05-09T08:05:19.312Z,7.07
2023-05-09T08:07:40.786Z,7.65
2023-05-09T08:10:02.585Z,7.22
2023-05-09T08:12:24.143Z,7.10
2023-05-09T08:14:45.657Z,7.10
2023-05-09T08:17:07.100Z,7.18
2023-05-09T08:19:28.625Z,6.90
2023-05-09T08:21:50.167Z,7.30
2023-05-09T08:24:11.676Z,6.57
2023-05-09T08:26:33.124Z,6.53
2023-05-09T08:28:54.642Z,6.35
2023-05-09T08:31:16.203Z,5.68
2023-05-09T08:33:39.328Z,6.20
2023-05-09T08:36:02.453Z,5.88
2023-05-09T08:38:24.811Z,5.63
2023-05-09T08:40:46.736Z,5.38
2023-05-09T08:43:09.412Z,5.80
2023-05-09T08:45:32.833Z,5.15
2023-05-09T08:47:55.060Z,5.20
2023-05-09T08:50:17.614Z,5.32
2023-05-09T08:52:39.674Z,5.40
2023-05-09T08:55:04.817Z,5.03
2023-05-09T08:57:27.659Z,5.05
2023-05-09T08:59:49.668Z,4.90
2023-05-09T09:02:14.505Z,4.93
2023-05-09T09:04:36.047Z,4.85
2023-05-09T09:06:58.077Z,5.03
2023-05-09T09:09:21.001Z,5.22
2023-05-09T09:11:43.319Z,4.90
2023-05-09T09:14:25.787Z,5.50
2023-05-09T09:16:48.974Z,5.35
2023-05-09T09:19:13.063Z,4.50
2023-05-09T09:21:34.562Z,5.35
2023-05-09T09:23:56.778Z,4.43
2023-05-09T09:26:18.303Z,4.93
2023-05-09T09:28:40.168Z,5.13
2023-05-09T09:31:01.993Z,5.22
2023-05-09T09:33:24.954Z,5.38
2023-05-09T09:35:48.547Z,5.00
2023-05-09T09:38:10.025Z,5.22
2023-05-09T09:40:31.569Z,5.07
2023-05-09T09:42:53.128Z,5.15
2023-05-09T09:45:19.664Z,5.10
2023-05-09T09:47:43.310Z,5.20
2023-05-09T09:50:11.104Z,4.90
2023-05-09T09:52:32.604Z,5.00
2023-05-09T09:54:57.182Z,4.55
2023-05-09T09:57:37.266Z,5.53
2023-05-09T09:59:59.330Z,5.03
2023-05-09T10:02:23.828Z,4.72
2023-05-09T10:04:45.257Z,5.28
2023-05-09T10:07:12.783Z,5.20
2023-05-09T10:09:40.121Z,5.10
2023-05-09T10:12:06.792Z,5.30
2023-05-09T10:14:32.067Z,4.75
2023-05-09T10:16:56.814Z,5.40
2023-05-09T10:19:20.841Z,4.85
2023-05-09T10:21:43.164Z,5.28
2023-05-09T10:24:05.440Z,4.90
2023-05-09T10:26:32.474Z,4.70
2023-05-09T10:28:56.059Z,4.95
2023-05-09T10:31:29.535Z,4.97
2023-05-09T10:33:52.170Z,5.03
2023-05-09T10:36:20.470Z,4.95
2023-05-09T10:38:42.786Z,4.85
2023-05-09T10:41:05.278Z,5.32
2023-05-09T10:43:27.286Z,4.97
2023-05-09T10:45:49.037Z,5.45
2023-05-09T10:48:11.663Z,5.10
2023-05-09T10:50:33.206Z,4.50
2023-05-09T10:53:14.135Z,4.68
2023-05-09T10:55:50.208Z,4.13
2023-05-09T10:58:26.668Z,4.43
2023-05-09T11:00:50.384Z,4.80
2023-05-09T11:03:11.894Z,4.22
2023-05-09T11:05:39.116Z,4.10
2023-05-09T11:08:20.360Z,4.53
2023-05-09T11:10:42.994Z,4.30
2023-05-09T11:13:04.552Z,4.20
2023-05-09T11:15:27.849Z,4.45
2023-05-09T11:18:09.429Z,4.28
2023-05-09T11:20:34.227Z,3.95
2023-05-09T11:22:57.450Z,4.60
2023-05-09T11:25:28.049Z,4.43
2023-05-09T11:27:50.187Z,4.63
2023-05-09T11:30:14.617Z,3.80
2023-05-09T11:32:48.070Z,3.90
2023-05-09T11:35:14.899Z,4.20
2023-05-09T11:37:47.151Z,5.32
2023-05-09T11:40:12.231Z,6.28
2023-05-09T11:42:33.670Z,3.83
2023-05-09T11:44:56.900Z,3.78
2023-05-09T11:47:18.451Z,5.05
2023-05-09T11:49:43.523Z,3.40
2023-05-09T11:52:05.397Z,6.55
2023-05-09T11:54:26.930Z,3.20
2023-05-09T11:56:48.472Z,4.78
2023-05-09T11:59:13.146Z,3.40
2023-05-09T12:01:36.314Z,3.80
2023-05-09T12:04:02.218Z,3.63
2023-05-09T12:06:24.728Z,3.10
2023-05-09T12:08:49.112Z,3.33
2023-05-09T12:11:11.004Z,3.20
2023-05-09T12:13:32.564Z,4.18
2023-05-09T12:16:01.143Z,3.10
2023-05-09T12:18:24.049Z,3.60
2023-05-09T12:20:52.721Z,2.97
2023-05-09T12:23:15.000Z,3.80
2023-05-09T12:25:36.541Z,3.38
2023-05-09T12:27:58.679Z,2.92
2023-05-09T12:30:20.451Z,3.35
2023-05-09T12:32:43.577Z,2.88
2023-05-09T12:35:07.264Z,3.55
2023-05-09T12:37:32.571Z,2.85
2023-05-09T12:40:05.009Z,2.95
2023-05-09T12:42:29.623Z,3.10
2023-05-09T12:44:51.453Z,3.47
2023-05-09T12:47:13.416Z,4.28
2023-05-09T12:49:36.919Z,4.78
2023-05-09T12:52:03.025Z,3.15
2023-05-09T12:54:27.749Z,3.95
2023-05-09T12:56:52.135Z,3.42
2023-05-09T12:59:15.387Z,3.65
2023-05-09T13:01:36.921Z,3.25
2023-05-09T13:04:03.763Z,3.28
2023-05-09T13:06:25.387Z,3.15
2023-05-09T13:08:57.817Z,3.03
2023-05-09T13:11:20.649Z,3.03
2023-05-09T13:13:42.531Z,3.08
2023-05-09T13:16:06.003Z,3.40
2023-05-09T13:18:28.425Z,3.10
2023-05-09T13:20:52.800Z,2.97
2023-05-09T13:23:14.222Z,3.58
2023-05-09T13:25:35.780Z,3.50
2023-05-09T13:27:57.235Z,3.30
2023-05-09T13:30:19.193Z,3.75
2023-05-09T13:32:40.940Z,2.90
2023-05-09T13:35:02.921Z,2.97
2023-05-09T13:37:24.427Z,2.65
2023-05-09T13:39:46.425Z,3.05
2023-05-09T13:42:08.083Z,3.83
2023-05-09T13:44:29.671Z,3.10
2023-05-09T13:46:51.221Z,3.28
2023-05-09T13:49:12.691Z,5.72
2023-05-09T13:51:34.585Z,2.88
2023-05-09T13:53:56.087Z,3.30
2023-05-09T13:56:17.518Z,2.60
2023-05-09T13:58:39.001Z,2.50
2023-05-09T14:01:00.496Z,2.50
2023-05-09T14:03:21.981Z,2.50
2023-05-09T14:05:43.529Z,3.15
2023-05-09T14:08:05.102Z,2.47
2023-05-09T14:10:27.206Z,2.80
2023-05-09T14:12:48.784Z,2.80
2023-05-09T14:15:11.219Z,2.60
2023-05-09T14:17:32.801Z,2.40
2023-05-09T14:19:54.406Z,2.30
2023-05-09T14:22:16.391Z,2.22
2023-05-09T14:24:37.860Z,2.40
2023-05-09T14:26:59.382Z,2.72
2023-05-09T14:29:21.386Z,4.78
2023-05-09T14:31:42.916Z,4.78
2023-05-09T14:34:05.357Z,3.28
2023-05-09T14:36:28.698Z,4.25
2023-05-09T14:38:50.163Z,2.45
2023-05-09T14:41:11.839Z,2.33
2023-05-09T14:43:33.524Z,2.30
2023-05-09T14:45:55.611Z,3.13
2023-05-09T14:48:17.418Z,2.45
2023-05-09T14:50:39.309Z,2.67
2023-05-09T14:53:01.213Z,4.72
2023-05-09T14:55:23.319Z,2.17
2023-05-09T14:57:45.394Z,2.00
2023-05-09T15:00:19.565Z,2.08
2023-05-09T15:02:43.191Z,1.50
2023-05-09T15:05:04.987Z,2.10
2023-05-09T15:07:26.464Z,1.92
2023-05-09T15:09:47.915Z,1.90
2023-05-09T15:12:09.446Z,1.70
2023-05-09T15:14:31.050Z,2.10
2023-05-09T15:16:53.124Z,2.30
2023-05-09T15:19:14.748Z,2.05
2023-05-09T15:21:36.286Z,1.80
2023-05-09T15:23:58.255Z,1.80
2023-05-09T15:26:19.681Z,1.85
2023-05-09T15:28:41.221Z,1.88
2023-05-09T15:31:03.515Z,1.73
2023-05-09T15:33:25.266Z,1.90
2023-05-09T15:35:46.863Z,1.80
2023-05-09T15:38:12.029Z,1.80
2023-05-09T15:40:33.473Z,1.70
2023-05-09T15:42:54.927Z,1.83
2023-05-09T15:45:16.751Z,1.67
2023-05-09T15:47:38.317Z,1.65
2023-05-09T15:49:59.821Z,1.77
2023-05-09T15:52:21.460Z,1.95
2023-05-09T15:54:45.163Z,1.70
2023-05-09T15:57:07.227Z,1.60
2023-05-09T15:59:28.655Z,1.77
2023-05-09T16:01:50.188Z,1.63
2023-05-09T16:04:11.924Z,1.92
2023-05-09T16:06:33.645Z,1.70
2023-05-09T16:08:55.129Z,1.80
2023-05-09T16:11:16.566Z,1.80
2023-05-09T16:13:38.499Z,2.10
2023-05-09T16:16:00.720Z,2.40
2023-05-09T16:18:22.634Z,1.92
2023-05-09T16:20:44.265Z,2.25
2023-05-09T16:23:05.738Z,1.90
2023-05-09T16:25:27.427Z,1.92
2023-05-09T16:49:05.127Z,1.55
2023-05-09T16:51:26.674Z,2.00
2023-05-09T16:53:48.142Z,2.00
2023-05-09T16:56:11.111Z,2.70
2023-05-09T16:58:32.597Z,1.77
2023-05-09T17:00:55.308Z,1.80
2023-05-09T17:03:16.900Z,1.67
2023-05-09T17:05:38.334Z,2.53
2023-05-09T17:07:59.824Z,2.65
2023-05-09T17:10:21.577Z,2.10
2023-05-09T17:12:43.129Z,2.30
2023-05-09T17:15:08.675Z,1.88
2023-05-09T17:17:30.142Z,1.90
2023-05-09T17:19:51.670Z,1.90
2023-05-09T17:22:13.366Z,1.50
2023-05-09T17:24:34.986Z,1.90
2023-05-09T17:26:56.739Z,1.90
2023-05-09T17:29:18.290Z,1.98
2023-05-09T17:31:39.738Z,1.65
2023-05-09T17:34:01.490Z,1.70
2023-05-09T17:36:23.083Z,1.70
2023-05-09T17:38:44.584Z,1.90
2023-05-09T17:41:07.050Z,1.70
2023-05-09T17:43:28.804Z,1.30
2023-05-09T17:45:53.575Z,1.75
2023-05-09T17:48:15.945Z,1.90
2023-05-09T17:50:37.402Z,1.77
2023-05-09T17:52:58.838Z,14.60
2023-05-09T17:55:20.539Z,1.70
2023-05-09T17:57:43.037Z,1.60
2023-05-09T18:00:08.804Z,1.83
2023-05-09T18:02:30.284Z,1.98
2023-05-09T18:04:52.308Z,1.60
2023-05-09T18:07:14.227Z,1.65
2023-05-09T18:09:35.736Z,1.77
2023-05-09T18:11:57.327Z,1.60
2023-05-09T18:14:18.773Z,1.70
2023-05-09T18:16:40.287Z,1.73
2023-05-09T18:19:01.757Z,1.90
2023-05-09T18:21:23.209Z,1.50
2023-05-09T18:23:44.638Z,1.80
2023-05-09T18:26:06.261Z,1.85
2023-05-09T18:28:28.828Z,1.58
2023-05-09T18:30:54.643Z,1.85
2023-05-09T18:33:16.213Z,1.85
2023-05-09T18:35:37.677Z,1.80
2023-05-09T18:37:59.117Z,1.90
2023-05-09T18:40:20.581Z,1.90
2023-05-09T18:42:42.221Z,1.77
2023-05-09T18:45:05.884Z,1.92
2023-05-09T18:47:28.084Z,2.00
2023-05-09T18:49:49.581Z,1.80
2023-05-09T18:52:11.033Z,2.15
2023-05-09T18:54:32.496Z,1.90
2023-05-09T18:56:53.938Z,1.90
2023-05-09T18:59:16.400Z,2.13
2023-05-09T19:01:38.082Z,1.75
2023-05-09T19:03:59.740Z,1.77
2023-05-09T19:06:21.610Z,2.00
2023-05-09T19:08:43.600Z,1.92
2023-05-09T19:11:05.106Z,1.77
2023-05-09T19:13:26.879Z,2.13
2023-05-09T19:15:48.393Z,2.00
2023-05-09T19:18:09.880Z,1.85
2023-05-09T19:20:31.595Z,1.83
2023-05-09T19:22:53.172Z,1.90
2023-05-09T19:25:14.635Z,2.10
2023-05-09T19:27:36.441Z,1.77
2023-05-09T19:29:59.382Z,1.88
2023-05-09T19:32:20.922Z,1.90
2023-05-09T19:34:42.401Z,1.90
2023-05-09T19:37:03.885Z,1.90
2023-05-09T19:39:25.385Z,1.73
2023-05-09T19:41:46.896Z,2.00
2023-05-09T19:44:08.395Z,1.90
2023-05-09T19:46:29.999Z,2.05
2023-05-09T19:48:51.809Z,2.10
2023-05-09T19:51:15.183Z,1.83
2023-05-09T19:53:36.656Z,1.90
2023-05-09T19:55:58.756Z,2.00
2023-05-09T19:58:20.319Z,1.98
2023-05-09T20:00:41.808Z,1.83
2023-05-09T20:03:04.106Z,2.10
2023-05-09T20:05:25.894Z,2.22
2023-05-09T20:07:47.332Z,1.80
2023-05-09T20:10:09.190Z,2.28
2023-05-09T20:12:30.677Z,2.28
2023-05-09T20:14:52.139Z,2.17
2023-05-09T20:17:13.590Z,2.40
2023-05-09T20:19:35.135Z,1.98
2023-05-09T20:21:56.747Z,2.00
2023-05-09T20:24:19.442Z,2.85
2023-05-09T20:26:40.862Z,2.13
2023-05-09T20:29:02.400Z,2.55
2023-05-09T20:31:23.878Z,2.03
2023-05-09T20:33:45.372Z,2.10
2023-05-09T20:36:09.428Z,2.20
2023-05-09T20:38:30.880Z,2.08
2023-05-09T20:40:52.315Z,2.20
2023-05-09T20:43:13.789Z,1.98
2023-05-09T20:45:37.381Z,2.05
2023-05-09T20:47:59.392Z,2.20
2023-05-09T20:50:21.022Z,2.13
2023-05-09T20:52:42.496Z,2.10
2023-05-09T20:55:04.268Z,2.30
2023-05-09T20:57:25.820Z,1.83
2023-05-09T20:59:47.253Z,2.08
2023-05-09T21:02:08.986Z,2.08
2023-05-09T21:04:30.587Z,1.95
2023-05-09T21:06:52.056Z,2.45
2023-05-09T21:09:13.532Z,2.20
2023-05-09T21:11:35.052Z,2.20
2023-05-09T21:13:56.802Z,1.95
2023-05-09T21:16:18.313Z,1.88
2023-05-09T21:18:39.754Z,1.85
2023-05-09T21:21:02.757Z,2.35
2023-05-09T21:23:24.195Z,1.65
2023-05-09T21:25:45.661Z,2.20
2023-05-09T21:28:07.090Z,2.20
2023-05-09T21:30:28.683Z,2.40
2023-05-09T21:32:51.315Z,2.22
2023-05-09T21:35:13.713Z,2.20
2023-05-09T21:37:35.213Z,2.30
2023-05-09T21:39:57.137Z,2.25
2023-05-09T21:42:18.578Z,2.25
2023-05-09T21:44:40.038Z,2.08
2023-05-09T21:47:01.541Z,2.45
2023-05-09T21:49:23.100Z,2.25
2023-05-09T21:51:44.559Z,2.45
2023-05-09T21:54:06.298Z,2.40
2023-05-09T21:56:27.748Z,1.85
2023-05-09T21:58:49.243Z,2.28
2023-05-09T22:01:10.931Z,2.47
2023-05-09T22:03:32.443Z,2.50
2023-05-09T22:05:53.975Z,2.35
2023-05-09T22:08:15.612Z,2.33
2023-05-09T22:10:37.791Z,2.40
2023-05-09T22:12:59.312Z,2.35
2023-05-09T22:15:20.946Z,2.60
2023-05-09T22:17:42.495Z,2.30
2023-05-09T22:20:04.434Z,1.95
2023-05-09T22:22:26.967Z,2.35
2023-05-09T22:24:49.771Z,2.47
2023-05-09T22:27:11.578Z,2.40
2023-05-09T22:29:34.486Z,3.25
2023-05-09T22:31:55.939Z,2.50
2023-05-09T22:34:17.434Z,2.40
2023-05-09T22:36:38.856Z,2.40
2023-05-09T22:39:00.293Z,2.47
2023-05-09T22:41:22.093Z,2.40
2023-05-09T22:43:43.874Z,2.45
2023-05-09T22:46:05.692Z,2.60
2023-05-09T22:48:27.175Z,2.60
2023-05-09T22:50:48.639Z,2.65
2023-05-09T22:53:10.239Z,2.53
2023-05-09T22:55:31.748Z,2.50
2023-05-09T22:57:53.228Z,2.92
2023-05-09T23:00:15.598Z,2.58
2023-05-09T23:02:37.378Z,2.53
2023-05-09T23:04:59.102Z,2.67
2023-05-09T23:07:20.537Z,2.72
2023-05-09T23:09:42.025Z,2.40
2023-05-09T23:12:03.808Z,2.38
2023-05-09T23:14:25.339Z,2.35
2023-05-09T23:16:46.887Z,2.25
2023-05-09T23:19:08.384Z,2.17
2023-05-09T23:21:29.841Z,2.40
2023-05-09T23:23:51.270Z,2.60
2023-05-09T23:26:12.763Z,2.50
2023-05-09T23:28:34.443Z,2.63
2023-05-09T23:30:55.940Z,2.47
2023-05-09T23:33:18.060Z,2.42
2023-05-09T23:35:39.497Z,2.50
2023-05-09T23:38:01.013Z,2.65
2023-05-09T23:40:22.511Z,2.35
2023-05-09T23:42:43.955Z,2.67
2023-05-09T23:45:06.565Z,2.20
2023-05-09T23:47:28.032Z,2.70
2023-05-09T23:49:49.542Z,2.88
2023-05-09T23:52:11.147Z,2.50
2023-05-09T23:54:32.597Z,2.30
2023-05-09T23:56:56.348Z,2.53
2023-05-09T23:59:17.876Z,2.67
